sensor_id;sensor_type;location;lat;lon;timestamp;P1;durP1;ratioP1;P2;durP2;ratioP2
27505;SDS011;14939;43.596;1.320;2023-03-23T00:02:02;2.70;;;1.50;;
27505;SDS011;14939;43.596;1.320;2023-03-23T00:04:28;2.58;;;1.20;;
27505;SDS011;14939;43.596;1.320;2023-03-23T00:06:56;9.88;;;1.50;;
27505;SDS011;14939;43.596;1.320;2023-03-23T00:09:22;3.50;;;1.55;;
27505;SDS011;14939;43.596;1.320;2023-03-23T00:11:48;3.35;;;1.50;;
27505;SDS011;14939;43.596;1.320;2023-03-23T00:14:15;2.85;;;1.30;;
27505;SDS011;14939;43.596;1.320;2023-03-23T00:16:41;2.97;;;1.42;;
27505;SDS011;14939;43.596;1.320;2023-03-23T00:19:11;3.53;;;1.48;;
27505;SDS011;14939;43.596;1.320;2023-03-23T00:21:38;2.50;;;1.30;;
27505;SDS011;14939;43.596;1.320;2023-03-23T00:24:07;2.25;;;1.33;;
27505;SDS011;14939;43.596;1.320;2023-03-23T00:26:38;2.13;;;1.30;;
27505;SDS011;14939;43.596;1.320;2023-03-23T00:29:06;2.70;;;1.52;;
27505;SDS011;14939;43.596;1.320;2023-03-23T00:31:38;3.17;;;1.40;;
27505;SDS011;14939;43.596;1.320;2023-03-23T00:34:05;2.53;;;1.60;;
27505;SDS011;14939;43.596;1.320;2023-03-23T00:36:31;3.42;;;1.95;;
27505;SDS011;14939;43.596;1.320;2023-03-23T00:39:00;2.90;;;1.50;;
27505;SDS011;14939;43.596;1.320;2023-03-23T00:41:29;2.15;;;1.60;;
27505;SDS011;14939;43.596;1.320;2023-03-23T00:44:01;4.43;;;1.85;;
27505;SDS011;14939;43.596;1.320;2023-03-23T00:46:28;2.67;;;1.70;;
27505;SDS011;14939;43.596;1.320;2023-03-23T00:48:55;5.63;;;1.85;;
27505;SDS011;14939;43.596;1.320;2023-03-23T00:51:22;2.53;;;1.60;;
27505;SDS011;14939;43.596;1.320;2023-03-23T00:53:48;6.85;;;1.58;;
27505;SDS011;14939;43.596;1.320;2023-03-23T00:56:14;2.83;;;1.73;;
27505;SDS011;14939;43.596;1.320;2023-03-23T00:58:40;3.42;;;1.70;;
27505;SDS011;14939;43.596;1.320;2023-03-23T01:01:06;3.20;;;1.70;;
27505;SDS011;14939;43.596;1.320;2023-03-23T01:03:33;5.18;;;1.50;;
27505;SDS011;14939;43.596;1.320;2023-03-23T01:06:09;4.10;;;2.00;;
27505;SDS011;14939;43.596;1.320;2023-03-23T01:08:39;3.58;;;1.95;;
27505;SDS011;14939;43.596;1.320;2023-03-23T01:11:15;3.75;;;1.95;;
27505;SDS011;14939;43.596;1.320;2023-03-23T01:13:42;3.65;;;1.90;;
27505;SDS011;14939;43.596;1.320;2023-03-23T01:16:08;3.90;;;1.83;;
27505;SDS011;14939;43.596;1.320;2023-03-23T01:18:35;3.75;;;2.10;;
27505;SDS011;14939;43.596;1.320;2023-03-23T01:21:09;3.33;;;2.03;;
27505;SDS011;14939;43.596;1.320;2023-03-23T01:23:36;5.60;;;2.20;;
27505;SDS011;14939;43.596;1.320;2023-03-23T01:26:07;2.95;;;2.03;;
27505;SDS011;14939;43.596;1.320;2023-03-23T01:28:37;3.95;;;2.33;;
27505;SDS011;14939;43.596;1.320;2023-03-23T01:31:13;3.80;;;2.35;;
27505;SDS011;14939;43.596;1.320;2023-03-23T01:33:41;4.55;;;2.40;;
27505;SDS011;14939;43.596;1.320;2023-03-23T01:36:09;4.40;;;2.38;;
27505;SDS011;14939;43.596;1.320;2023-03-23T01:38:41;5.88;;;2.85;;
27505;SDS011;14939;43.596;1.320;2023-03-23T01:41:08;3.75;;;2.90;;
27505;SDS011;14939;43.596;1.320;2023-03-23T01:43:35;4.78;;;2.80;;
27505;SDS011;14939;43.596;1.320;2023-03-23T01:46:01;6.38;;;3.17;;
27505;SDS011;14939;43.596;1.320;2023-03-23T01:48:34;6.65;;;3.05;;
27505;SDS011;14939;43.596;1.320;2023-03-23T01:51:09;7.60;;;3.38;;
27505;SDS011;14939;43.596;1.320;2023-03-23T01:53:42;6.75;;;3.30;;
27505;SDS011;14939;43.596;1.320;2023-03-23T01:56:14;7.28;;;3.50;;
27505;SDS011;14939;43.596;1.320;2023-03-23T01:58:45;5.22;;;3.55;;
27505;SDS011;14939;43.596;1.320;2023-03-23T02:01:12;7.60;;;4.10;;
27505;SDS011;14939;43.596;1.320;2023-03-23T02:03:44;8.18;;;4.65;;
27505;SDS011;14939;43.596;1.320;2023-03-23T02:06:13;9.05;;;4.20;;
27505;SDS011;14939;43.596;1.320;2023-03-23T02:08:39;5.72;;;4.20;;
27505;SDS011;14939;43.596;1.320;2023-03-23T02:11:11;6.35;;;4.15;;
27505;SDS011;14939;43.596;1.320;2023-03-23T02:13:41;6.75;;;4.38;;
27505;SDS011;14939;43.596;1.320;2023-03-23T02:16:11;8.55;;;4.85;;
27505;SDS011;14939;43.596;1.320;2023-03-23T02:30:13;9.07;;;5.28;;
27505;SDS011;14939;43.596;1.320;2023-03-23T02:35:20;10.48;;;5.38;;
27505;SDS011;14939;43.596;1.320;2023-03-23T02:37:50;8.98;;;5.40;;
27505;SDS011;14939;43.596;1.320;2023-03-23T02:40:25;9.43;;;5.85;;
27505;SDS011;14939;43.596;1.320;2023-03-23T02:42:58;10.18;;;6.63;;
27505;SDS011;14939;43.596;1.320;2023-03-23T02:45:25;11.20;;;6.63;;
27505;SDS011;14939;43.596;1.320;2023-03-23T02:47:54;9.75;;;6.90;;
27505;SDS011;14939;43.596;1.320;2023-03-23T02:50:22;15.63;;;7.47;;
27505;SDS011;14939;43.596;1.320;2023-03-23T02:52:50;13.57;;;7.65;;
27505;SDS011;14939;43.596;1.320;2023-03-23T02:55:19;12.90;;;7.75;;
27505;SDS011;14939;43.596;1.320;2023-03-23T02:57:49;14.10;;;7.82;;
27505;SDS011;14939;43.596;1.320;2023-03-23T03:00:26;14.65;;;8.80;;
27505;SDS011;14939;43.596;1.320;2023-03-23T03:02:53;16.42;;;9.07;;
27505;SDS011;14939;43.596;1.320;2023-03-23T03:08:00;15.02;;;9.68;;
27505;SDS011;14939;43.596;1.320;2023-03-23T03:18:29;20.27;;;10.27;;
27505;SDS011;14939;43.596;1.320;2023-03-23T03:21:05;18.83;;;10.55;;
27505;SDS011;14939;43.596;1.320;2023-03-23T03:23:35;17.63;;;9.82;;
27505;SDS011;14939;43.596;1.320;2023-03-23T03:26:03;16.77;;;10.27;;
27505;SDS011;14939;43.596;1.320;2023-03-23T03:28:31;18.35;;;10.63;;
27505;SDS011;14939;43.596;1.320;2023-03-23T03:30:58;15.00;;;9.73;;
27505;SDS011;14939;43.596;1.320;2023-03-23T03:33:28;18.35;;;10.52;;
27505;SDS011;14939;43.596;1.320;2023-03-23T03:35:57;18.88;;;10.48;;
27505;SDS011;14939;43.596;1.320;2023-03-23T03:38:26;13.60;;;9.85;;
27505;SDS011;14939;43.596;1.320;2023-03-23T03:40:52;16.35;;;9.90;;
27505;SDS011;14939;43.596;1.320;2023-03-23T03:43:19;15.02;;;10.30;;
27505;SDS011;14939;43.596;1.320;2023-03-23T03:45:45;18.08;;;10.43;;
27505;SDS011;14939;43.596;1.320;2023-03-23T03:48:11;14.52;;;9.95;;
27505;SDS011;14939;43.596;1.320;2023-03-23T03:50:37;13.73;;;9.65;;
27505;SDS011;14939;43.596;1.320;2023-03-23T03:53:04;14.80;;;10.20;;
27505;SDS011;14939;43.596;1.320;2023-03-23T03:55:30;16.02;;;9.80;;
27505;SDS011;14939;43.596;1.320;2023-03-23T03:58:00;14.52;;;10.00;;
27505;SDS011;14939;43.596;1.320;2023-03-23T04:00:27;15.65;;;10.90;;
27505;SDS011;14939;43.596;1.320;2023-03-23T04:02:53;16.90;;;9.63;;
27505;SDS011;14939;43.596;1.320;2023-03-23T04:05:22;18.23;;;10.63;;
27505;SDS011;14939;43.596;1.320;2023-03-23T04:07:49;19.90;;;10.80;;
27505;SDS011;14939;43.596;1.320;2023-03-23T04:10:16;15.70;;;10.48;;
27505;SDS011;14939;43.596;1.320;2023-03-23T04:12:46;17.85;;;10.77;;
27505;SDS011;14939;43.596;1.320;2023-03-23T04:15:13;13.65;;;9.60;;
27505;SDS011;14939;43.596;1.320;2023-03-23T04:17:39;19.35;;;10.77;;
27505;SDS011;14939;43.596;1.320;2023-03-23T04:20:05;18.08;;;10.40;;
27505;SDS011;14939;43.596;1.320;2023-03-23T04:22:37;15.43;;;11.15;;
27505;SDS011;14939;43.596;1.320;2023-03-23T04:25:03;15.25;;;9.90;;
27505;SDS011;14939;43.596;1.320;2023-03-23T04:27:31;17.95;;;10.27;;
27505;SDS011;14939;43.596;1.320;2023-03-23T04:29:57;17.30;;;10.32;;
27505;SDS011;14939;43.596;1.320;2023-03-23T04:32:24;19.98;;;10.52;;
27505;SDS011;14939;43.596;1.320;2023-03-23T04:34:53;18.48;;;10.30;;
27505;SDS011;14939;43.596;1.320;2023-03-23T04:37:20;15.40;;;10.05;;
27505;SDS011;14939;43.596;1.320;2023-03-23T04:39:50;21.08;;;11.13;;
27505;SDS011;14939;43.596;1.320;2023-03-23T04:42:30;18.08;;;10.73;;
27505;SDS011;14939;43.596;1.320;2023-03-23T04:44:56;18.35;;;10.50;;
27505;SDS011;14939;43.596;1.320;2023-03-23T04:47:23;14.77;;;11.13;;
27505;SDS011;14939;43.596;1.320;2023-03-23T04:49:50;22.60;;;11.98;;
27505;SDS011;14939;43.596;1.320;2023-03-23T04:52:16;17.58;;;10.88;;
27505;SDS011;14939;43.596;1.320;2023-03-23T04:54:43;21.40;;;12.23;;
27505;SDS011;14939;43.596;1.320;2023-03-23T04:57:09;20.67;;;12.75;;
27505;SDS011;14939;43.596;1.320;2023-03-23T04:59:35;24.48;;;12.65;;
27505;SDS011;14939;43.596;1.320;2023-03-23T05:02:02;21.35;;;12.70;;
27505;SDS011;14939;43.596;1.320;2023-03-23T05:04:27;23.58;;;14.07;;
27505;SDS011;14939;43.596;1.320;2023-03-23T05:06:53;21.67;;;13.82;;
27505;SDS011;14939;43.596;1.320;2023-03-23T05:09:19;24.00;;;14.63;;
27505;SDS011;14939;43.596;1.320;2023-03-23T05:11:45;23.05;;;15.45;;
27505;SDS011;14939;43.596;1.320;2023-03-23T05:14:11;28.00;;;16.10;;
27505;SDS011;14939;43.596;1.320;2023-03-23T05:16:36;27.70;;;16.15;;
27505;SDS011;14939;43.596;1.320;2023-03-23T05:19:03;26.50;;;15.90;;
27505;SDS011;14939;43.596;1.320;2023-03-23T05:21:29;25.92;;;16.20;;
27505;SDS011;14939;43.596;1.320;2023-03-23T05:23:56;28.65;;;16.67;;
27505;SDS011;14939;43.596;1.320;2023-03-23T05:26:22;28.13;;;15.75;;
27505;SDS011;14939;43.596;1.320;2023-03-23T05:28:54;26.92;;;16.33;;
27505;SDS011;14939;43.596;1.320;2023-03-23T05:31:21;28.45;;;15.95;;
27505;SDS011;14939;43.596;1.320;2023-03-23T05:33:48;27.83;;;16.58;;
27505;SDS011;14939;43.596;1.320;2023-03-23T05:36:13;29.05;;;16.48;;
27505;SDS011;14939;43.596;1.320;2023-03-23T05:38:39;26.73;;;17.38;;
27505;SDS011;14939;43.596;1.320;2023-03-23T05:41:10;32.05;;;16.90;;
27505;SDS011;14939;43.596;1.320;2023-03-23T05:43:36;27.42;;;16.48;;
27505;SDS011;14939;43.596;1.320;2023-03-23T05:46:04;26.85;;;17.50;;
27505;SDS011;14939;43.596;1.320;2023-03-23T05:48:30;29.10;;;17.65;;
27505;SDS011;14939;43.596;1.320;2023-03-23T05:50:56;27.67;;;17.95;;
27505;SDS011;14939;43.596;1.320;2023-03-23T05:53:22;35.03;;;17.90;;
27505;SDS011;14939;43.596;1.320;2023-03-23T05:55:49;31.45;;;18.30;;
27505;SDS011;14939;43.596;1.320;2023-03-23T05:58:14;29.40;;;17.67;;
27505;SDS011;14939;43.596;1.320;2023-03-23T06:00:40;29.05;;;18.65;;
27505;SDS011;14939;43.596;1.320;2023-03-23T06:03:06;28.33;;;18.88;;
27505;SDS011;14939;43.596;1.320;2023-03-23T06:05:32;25.08;;;17.45;;
27505;SDS011;14939;43.596;1.320;2023-03-23T06:07:58;28.63;;;17.80;;
27505;SDS011;14939;43.596;1.320;2023-03-23T06:10:25;28.88;;;18.25;;
27505;SDS011;14939;43.596;1.320;2023-03-23T06:12:51;27.50;;;18.88;;
27505;SDS011;14939;43.596;1.320;2023-03-23T06:15:17;29.80;;;17.95;;
27505;SDS011;14939;43.596;1.320;2023-03-23T06:17:44;26.25;;;17.05;;
27505;SDS011;14939;43.596;1.320;2023-03-23T06:20:09;27.77;;;18.13;;
27505;SDS011;14939;43.596;1.320;2023-03-23T06:22:36;29.33;;;17.77;;
27505;SDS011;14939;43.596;1.320;2023-03-23T06:25:03;29.45;;;17.08;;
27505;SDS011;14939;43.596;1.320;2023-03-23T06:27:30;31.52;;;17.70;;
27505;SDS011;14939;43.596;1.320;2023-03-23T06:29:56;30.10;;;17.55;;
27505;SDS011;14939;43.596;1.320;2023-03-23T06:32:21;30.67;;;17.17;;
27505;SDS011;14939;43.596;1.320;2023-03-23T06:34:48;28.00;;;16.90;;
27505;SDS011;14939;43.596;1.320;2023-03-23T06:37:14;26.80;;;17.10;;
27505;SDS011;14939;43.596;1.320;2023-03-23T06:39:41;28.83;;;16.85;;
27505;SDS011;14939;43.596;1.320;2023-03-23T06:42:10;31.65;;;16.30;;
27505;SDS011;14939;43.596;1.320;2023-03-23T06:44:36;30.10;;;17.63;;
27505;SDS011;14939;43.596;1.320;2023-03-23T06:47:06;26.48;;;16.33;;
27505;SDS011;14939;43.596;1.320;2023-03-23T06:49:32;28.05;;;15.88;;
27505;SDS011;14939;43.596;1.320;2023-03-23T06:51:59;33.55;;;16.33;;
27505;SDS011;14939;43.596;1.320;2023-03-23T06:54:27;24.75;;;15.52;;
27505;SDS011;14939;43.596;1.320;2023-03-23T06:56:53;26.88;;;16.25;;
27505;SDS011;14939;43.596;1.320;2023-03-23T06:59:18;26.73;;;15.35;;
27505;SDS011;14939;43.596;1.320;2023-03-23T07:01:44;26.08;;;15.40;;
27505;SDS011;14939;43.596;1.320;2023-03-23T07:04:11;25.30;;;15.65;;
27505;SDS011;14939;43.596;1.320;2023-03-23T07:06:41;25.70;;;15.07;;
27505;SDS011;14939;43.596;1.320;2023-03-23T07:09:07;29.30;;;15.57;;
27505;SDS011;14939;43.596;1.320;2023-03-23T07:11:33;20.88;;;13.85;;
27505;SDS011;14939;43.596;1.320;2023-03-23T07:13:58;23.92;;;15.50;;
27505;SDS011;14939;43.596;1.320;2023-03-23T07:16:24;27.05;;;14.93;;
27505;SDS011;14939;43.596;1.320;2023-03-23T07:18:51;25.40;;;14.27;;
27505;SDS011;14939;43.596;1.320;2023-03-23T07:21:17;32.33;;;15.30;;
27505;SDS011;14939;43.596;1.320;2023-03-23T07:23:42;27.83;;;15.20;;
27505;SDS011;14939;43.596;1.320;2023-03-23T07:26:08;26.40;;;14.85;;
27505;SDS011;14939;43.596;1.320;2023-03-23T07:28:34;22.63;;;14.80;;
27505;SDS011;14939;43.596;1.320;2023-03-23T07:30:59;25.80;;;15.60;;
27505;SDS011;14939;43.596;1.320;2023-03-23T07:33:25;27.27;;;15.05;;
27505;SDS011;14939;43.596;1.320;2023-03-23T07:35:52;25.70;;;16.58;;
27505;SDS011;14939;43.596;1.320;2023-03-23T07:38:17;26.23;;;15.55;;
27505;SDS011;14939;43.596;1.320;2023-03-23T07:40:43;27.33;;;15.60;;
27505;SDS011;14939;43.596;1.320;2023-03-23T07:43:10;26.27;;;15.25;;
27505;SDS011;14939;43.596;1.320;2023-03-23T07:45:36;26.40;;;14.85;;
27505;SDS011;14939;43.596;1.320;2023-03-23T07:48:02;28.15;;;15.88;;
27505;SDS011;14939;43.596;1.320;2023-03-23T07:50:28;25.85;;;15.98;;
27505;SDS011;14939;43.596;1.320;2023-03-23T07:52:55;29.88;;;15.43;;
27505;SDS011;14939;43.596;1.320;2023-03-23T07:55:22;24.60;;;16.05;;
27505;SDS011;14939;43.596;1.320;2023-03-23T07:57:49;28.08;;;16.15;;
27505;SDS011;14939;43.596;1.320;2023-03-23T08:00:18;26.92;;;15.75;;
27505;SDS011;14939;43.596;1.320;2023-03-23T08:02:49;25.02;;;14.77;;
27505;SDS011;14939;43.596;1.320;2023-03-23T08:05:17;23.77;;;15.18;;
27505;SDS011;14939;43.596;1.320;2023-03-23T08:07:43;23.10;;;15.05;;
27505;SDS011;14939;43.596;1.320;2023-03-23T08:10:10;25.55;;;14.60;;
27505;SDS011;14939;43.596;1.320;2023-03-23T08:12:38;24.08;;;14.23;;
27505;SDS011;14939;43.596;1.320;2023-03-23T08:15:07;22.75;;;14.50;;
27505;SDS011;14939;43.596;1.320;2023-03-23T08:17:37;24.35;;;14.30;;
27505;SDS011;14939;43.596;1.320;2023-03-23T08:20:05;24.50;;;14.50;;
27505;SDS011;14939;43.596;1.320;2023-03-23T08:22:42;25.42;;;14.57;;
27505;SDS011;14939;43.596;1.320;2023-03-23T08:25:10;20.75;;;12.73;;
27505;SDS011;14939;43.596;1.320;2023-03-23T08:27:37;20.77;;;13.75;;
27505;SDS011;14939;43.596;1.320;2023-03-23T08:30:09;19.50;;;12.30;;
27505;SDS011;14939;43.596;1.320;2023-03-23T08:32:36;22.50;;;13.50;;
27505;SDS011;14939;43.596;1.320;2023-03-23T08:35:03;17.88;;;12.68;;
27505;SDS011;14939;43.596;1.320;2023-03-23T08:37:29;19.85;;;12.68;;
27505;SDS011;14939;43.596;1.320;2023-03-23T08:39:55;19.20;;;12.30;;
27505;SDS011;14939;43.596;1.320;2023-03-23T08:42:23;18.98;;;11.85;;
27505;SDS011;14939;43.596;1.320;2023-03-23T08:44:50;20.67;;;11.95;;
27505;SDS011;14939;43.596;1.320;2023-03-23T08:47:16;17.50;;;11.30;;
27505;SDS011;14939;43.596;1.320;2023-03-23T08:49:42;17.70;;;10.65;;
27505;SDS011;14939;43.596;1.320;2023-03-23T08:52:10;20.30;;;10.57;;
27505;SDS011;14939;43.596;1.320;2023-03-23T08:54:36;16.42;;;10.27;;
27505;SDS011;14939;43.596;1.320;2023-03-23T08:57:02;16.48;;;11.13;;
27505;SDS011;14939;43.596;1.320;2023-03-23T08:59:28;19.80;;;11.77;;
27505;SDS011;14939;43.596;1.320;2023-03-23T09:01:55;15.60;;;10.02;;
27505;SDS011;14939;43.596;1.320;2023-03-23T09:04:20;14.38;;;10.10;;
27505;SDS011;14939;43.596;1.320;2023-03-23T09:06:46;16.30;;;10.13;;
27505;SDS011;14939;43.596;1.320;2023-03-23T09:09:12;15.90;;;9.75;;
27505;SDS011;14939;43.596;1.320;2023-03-23T09:11:39;13.93;;;9.90;;
27505;SDS011;14939;43.596;1.320;2023-03-23T09:14:05;17.58;;;10.00;;
27505;SDS011;14939;43.596;1.320;2023-03-23T09:16:32;13.50;;;9.75;;
27505;SDS011;14939;43.596;1.320;2023-03-23T09:18:59;13.70;;;9.90;;
27505;SDS011;14939;43.596;1.320;2023-03-23T09:21:26;15.18;;;9.40;;
27505;SDS011;14939;43.596;1.320;2023-03-23T09:23:53;14.93;;;9.55;;
27505;SDS011;14939;43.596;1.320;2023-03-23T09:26:23;16.27;;;9.77;;
27505;SDS011;14939;43.596;1.320;2023-03-23T09:28:50;13.75;;;9.25;;
27505;SDS011;14939;43.596;1.320;2023-03-23T09:31:16;13.32;;;9.07;;
27505;SDS011;14939;43.596;1.320;2023-03-23T09:33:45;14.93;;;8.60;;
27505;SDS011;14939;43.596;1.320;2023-03-23T09:36:11;15.27;;;9.15;;
27505;SDS011;14939;43.596;1.320;2023-03-23T09:38:39;15.88;;;9.35;;
27505;SDS011;14939;43.596;1.320;2023-03-23T09:46:59;13.13;;;8.38;;
27505;SDS011;14939;43.596;1.320;2023-03-23T09:49:32;11.07;;;7.93;;
27505;SDS011;14939;43.596;1.320;2023-03-23T09:54:37;16.17;;;8.75;;
27505;SDS011;14939;43.596;1.320;2023-03-23T09:57:11;12.82;;;7.80;;
27505;SDS011;14939;43.596;1.320;2023-03-23T10:02:34;13.57;;;8.07;;
27505;SDS011;14939;43.596;1.320;2023-03-23T10:05:25;10.55;;;8.13;;
27505;SDS011;14939;43.596;1.320;2023-03-23T10:07:58;13.32;;;8.23;;
27505;SDS011;14939;43.596;1.320;2023-03-23T10:10:29;11.43;;;8.07;;
27505;SDS011;14939;43.596;1.320;2023-03-23T10:13:04;14.15;;;8.15;;
27505;SDS011;14939;43.596;1.320;2023-03-23T10:15:39;12.70;;;7.80;;
27505;SDS011;14939;43.596;1.320;2023-03-23T10:20:41;60.95;;;10.65;;
27505;SDS011;14939;43.596;1.320;2023-03-23T10:25:49;11.65;;;7.55;;
27505;SDS011;14939;43.596;1.320;2023-03-23T10:28:38;14.85;;;8.05;;
27505;SDS011;14939;43.596;1.320;2023-03-23T10:31:09;13.15;;;8.25;;
27505;SDS011;14939;43.596;1.320;2023-03-23T10:33:47;10.88;;;7.57;;
27505;SDS011;14939;43.596;1.320;2023-03-23T10:41:39;13.40;;;7.28;;
27505;SDS011;14939;43.596;1.320;2023-03-23T10:44:17;10.65;;;7.05;;
27505;SDS011;14939;43.596;1.320;2023-03-23T10:49:37;11.20;;;7.32;;
27505;SDS011;14939;43.596;1.320;2023-03-23T10:54:47;10.88;;;6.47;;
27505;SDS011;14939;43.596;1.320;2023-03-23T10:59:58;12.05;;;6.50;;
27505;SDS011;14939;43.596;1.320;2023-03-23T11:02:45;9.57;;;5.90;;
27505;SDS011;14939;43.596;1.320;2023-03-23T11:05:40;7.22;;;5.72;;
27505;SDS011;14939;43.596;1.320;2023-03-23T11:08:12;11.32;;;6.47;;
27505;SDS011;14939;43.596;1.320;2023-03-23T11:10:51;10.00;;;6.32;;
27505;SDS011;14939;43.596;1.320;2023-03-23T11:13:19;7.70;;;6.13;;
27505;SDS011;14939;43.596;1.320;2023-03-23T11:15:47;8.65;;;5.85;;
27505;SDS011;14939;43.596;1.320;2023-03-23T11:18:25;9.25;;;6.68;;
27505;SDS011;14939;43.596;1.320;2023-03-23T11:21:01;9.02;;;7.03;;
27505;SDS011;14939;43.596;1.320;2023-03-23T11:28:52;9.52;;;7.13;;
27505;SDS011;14939;43.596;1.320;2023-03-23T11:31:24;10.82;;;6.63;;
27505;SDS011;14939;43.596;1.320;2023-03-23T11:33:59;9.43;;;7.13;;
27505;SDS011;14939;43.596;1.320;2023-03-23T11:39:02;9.55;;;7.00;;
27505;SDS011;14939;43.596;1.320;2023-03-23T11:41:43;11.52;;;7.03;;
27505;SDS011;14939;43.596;1.320;2023-03-23T11:44:09;8.70;;;6.97;;
27505;SDS011;14939;43.596;1.320;2023-03-23T11:46:42;11.32;;;7.15;;
27505;SDS011;14939;43.596;1.320;2023-03-23T11:49:18;10.00;;;6.38;;
27505;SDS011;14939;43.596;1.320;2023-03-23T11:51:53;9.75;;;6.90;;
27505;SDS011;14939;43.596;1.320;2023-03-23T11:59:34;9.63;;;7.32;;
27505;SDS011;14939;43.596;1.320;2023-03-23T12:07:43;9.70;;;6.85;;
27505;SDS011;14939;43.596;1.320;2023-03-23T12:10:27;10.00;;;7.77;;
27505;SDS011;14939;43.596;1.320;2023-03-23T12:24:27;10.18;;;7.80;;
27505;SDS011;14939;43.596;1.320;2023-03-23T12:32:47;12.98;;;7.60;;
27505;SDS011;14939;43.596;1.320;2023-03-23T12:43:43;13.18;;;7.18;;
27505;SDS011;14939;43.596;1.320;2023-03-23T12:49:01;12.07;;;7.15;;
27505;SDS011;14939;43.596;1.320;2023-03-23T12:51:35;13.90;;;7.47;;
27505;SDS011;14939;43.596;1.320;2023-03-23T12:59:47;13.52;;;7.30;;
27505;SDS011;14939;43.596;1.320;2023-03-23T13:02:28;13.80;;;8.07;;
27505;SDS011;14939;43.596;1.320;2023-03-23T13:05:09;13.35;;;8.50;;
27505;SDS011;14939;43.596;1.320;2023-03-23T13:08:14;12.30;;;7.13;;
27505;SDS011;14939;43.596;1.320;2023-03-23T13:13:22;13.15;;;7.30;;
27505;SDS011;14939;43.596;1.320;2023-03-23T13:18:46;10.48;;;7.32;;
27505;SDS011;14939;43.596;1.320;2023-03-23T13:21:25;11.98;;;8.07;;
27505;SDS011;14939;43.596;1.320;2023-03-23T13:24:01;14.73;;;7.15;;
27505;SDS011;14939;43.596;1.320;2023-03-23T13:26:37;14.38;;;7.47;;
27505;SDS011;14939;43.596;1.320;2023-03-23T13:29:09;15.27;;;7.67;;
27505;SDS011;14939;43.596;1.320;2023-03-23T13:31:43;10.48;;;6.95;;
27505;SDS011;14939;43.596;1.320;2023-03-23T13:34:15;13.65;;;6.60;;
27505;SDS011;14939;43.596;1.320;2023-03-23T13:36:51;8.38;;;6.78;;
27505;SDS011;14939;43.596;1.320;2023-03-23T13:44:40;9.00;;;7.00;;
27505;SDS011;14939;43.596;1.320;2023-03-23T13:49:56;16.08;;;7.05;;
27505;SDS011;14939;43.596;1.320;2023-03-23T14:10:56;7.55;;;5.57;;
27505;SDS011;14939;43.596;1.320;2023-03-23T14:13:32;12.80;;;6.22;;
27505;SDS011;14939;43.596;1.320;2023-03-23T14:18:35;19.20;;;6.95;;
27505;SDS011;14939;43.596;1.320;2023-03-23T14:21:03;12.57;;;7.15;;
27505;SDS011;14939;43.596;1.320;2023-03-23T14:23:33;7.78;;;6.60;;
27505;SDS011;14939;43.596;1.320;2023-03-23T14:26:00;10.68;;;6.18;;
27505;SDS011;14939;43.596;1.320;2023-03-23T14:28:35;12.93;;;6.60;;
27505;SDS011;14939;43.596;1.320;2023-03-23T14:31:09;15.60;;;6.15;;
27505;SDS011;14939;43.596;1.320;2023-03-23T14:33:45;11.75;;;6.57;;
27505;SDS011;14939;43.596;1.320;2023-03-23T14:36:13;8.48;;;6.00;;
27505;SDS011;14939;43.596;1.320;2023-03-23T14:38:44;7.88;;;6.25;;
27505;SDS011;14939;43.596;1.320;2023-03-23T14:41:10;8.80;;;6.00;;
27505;SDS011;14939;43.596;1.320;2023-03-23T14:43:37;7.10;;;5.80;;
27505;SDS011;14939;43.596;1.320;2023-03-23T14:46:05;21.58;;;7.57;;
27505;SDS011;14939;43.596;1.320;2023-03-23T14:48:34;10.75;;;6.72;;
27505;SDS011;14939;43.596;1.320;2023-03-23T14:51:02;12.55;;;7.32;;
27505;SDS011;14939;43.596;1.320;2023-03-23T14:53:39;12.38;;;6.88;;
27505;SDS011;14939;43.596;1.320;2023-03-23T14:56:20;11.07;;;7.00;;
27505;SDS011;14939;43.596;1.320;2023-03-23T14:58:51;9.95;;;7.40;;
27505;SDS011;14939;43.596;1.320;2023-03-23T15:01:23;11.93;;;7.05;;
27505;SDS011;14939;43.596;1.320;2023-03-23T15:03:53;13.70;;;7.50;;
27505;SDS011;14939;43.596;1.320;2023-03-23T15:06:23;11.45;;;6.80;;
27505;SDS011;14939;43.596;1.320;2023-03-23T15:08:52;10.57;;;7.50;;
27505;SDS011;14939;43.596;1.320;2023-03-23T15:11:27;9.55;;;6.57;;
27505;SDS011;14939;43.596;1.320;2023-03-23T15:13:58;12.32;;;6.80;;
27505;SDS011;14939;43.596;1.320;2023-03-23T15:16:31;14.27;;;6.95;;
27505;SDS011;14939;43.596;1.320;2023-03-23T15:19:03;8.63;;;7.00;;
27505;SDS011;14939;43.596;1.320;2023-03-23T15:21:31;10.55;;;7.22;;
27505;SDS011;14939;43.596;1.320;2023-03-23T15:24:02;14.95;;;7.30;;
27505;SDS011;14939;43.596;1.320;2023-03-23T15:29:15;10.35;;;6.57;;
27505;SDS011;14939;43.596;1.320;2023-03-23T15:31:44;18.52;;;7.25;;
27505;SDS011;14939;43.596;1.320;2023-03-23T15:34:17;11.88;;;7.22;;
27505;SDS011;14939;43.596;1.320;2023-03-23T15:37:02;11.52;;;7.05;;
27505;SDS011;14939;43.596;1.320;2023-03-23T15:39:30;10.40;;;7.22;;
27505;SDS011;14939;43.596;1.320;2023-03-23T15:41:57;11.00;;;7.32;;
27505;SDS011;14939;43.596;1.320;2023-03-23T15:44:25;10.45;;;7.10;;
27505;SDS011;14939;43.596;1.320;2023-03-23T15:47:11;16.23;;;7.35;;
27505;SDS011;14939;43.596;1.320;2023-03-23T15:49:40;10.55;;;7.05;;
27505;SDS011;14939;43.596;1.320;2023-03-23T15:52:08;11.20;;;6.47;;
27505;SDS011;14939;43.596;1.320;2023-03-23T15:54:36;11.00;;;6.38;;
27505;SDS011;14939;43.596;1.320;2023-03-23T15:57:01;13.48;;;6.55;;
27505;SDS011;14939;43.596;1.320;2023-03-23T15:59:27;15.38;;;6.38;;
27505;SDS011;14939;43.596;1.320;2023-03-23T16:01:53;13.57;;;6.00;;
27505;SDS011;14939;43.596;1.320;2023-03-23T16:04:19;9.88;;;5.68;;
27505;SDS011;14939;43.596;1.320;2023-03-23T16:06:45;11.45;;;5.72;;
27505;SDS011;14939;43.596;1.320;2023-03-23T16:09:15;10.85;;;5.55;;
27505;SDS011;14939;43.596;1.320;2023-03-23T16:11:42;11.20;;;6.18;;
27505;SDS011;14939;43.596;1.320;2023-03-23T16:14:08;10.25;;;5.90;;
27505;SDS011;14939;43.596;1.320;2023-03-23T16:19:10;12.18;;;6.25;;
27505;SDS011;14939;43.596;1.320;2023-03-23T16:21:37;10.50;;;6.35;;
27505;SDS011;14939;43.596;1.320;2023-03-23T16:24:02;11.40;;;5.40;;
27505;SDS011;14939;43.596;1.320;2023-03-23T16:26:28;11.15;;;6.20;;
27505;SDS011;14939;43.596;1.320;2023-03-23T16:28:54;9.52;;;5.10;;
27505;SDS011;14939;43.596;1.320;2023-03-23T16:31:20;10.57;;;5.28;;
27505;SDS011;14939;43.596;1.320;2023-03-23T16:33:46;9.70;;;5.00;;
27505;SDS011;14939;43.596;1.320;2023-03-23T16:36:12;11.48;;;5.28;;
27505;SDS011;14939;43.596;1.320;2023-03-23T16:38:39;12.95;;;5.25;;
27505;SDS011;14939;43.596;1.320;2023-03-23T16:41:05;11.75;;;5.57;;
27505;SDS011;14939;43.596;1.320;2023-03-23T16:43:32;12.68;;;5.28;;
27505;SDS011;14939;43.596;1.320;2023-03-23T16:45:58;12.15;;;5.05;;
27505;SDS011;14939;43.596;1.320;2023-03-23T16:48:24;11.10;;;5.03;;
27505;SDS011;14939;43.596;1.320;2023-03-23T16:50:51;10.75;;;5.22;;
27505;SDS011;14939;43.596;1.320;2023-03-23T16:53:18;16.20;;;5.38;;
27505;SDS011;14939;43.596;1.320;2023-03-23T16:55:45;9.98;;;5.18;;
27505;SDS011;14939;43.596;1.320;2023-03-23T16:58:12;13.10;;;5.50;;
27505;SDS011;14939;43.596;1.320;2023-03-23T17:00:39;10.48;;;5.60;;
27505;SDS011;14939;43.596;1.320;2023-03-23T17:03:05;11.63;;;5.45;;
27505;SDS011;14939;43.596;1.320;2023-03-23T17:05:32;14.00;;;6.38;;
27505;SDS011;14939;43.596;1.320;2023-03-23T17:08:00;10.65;;;6.07;;
27505;SDS011;14939;43.596;1.320;2023-03-23T17:10:26;10.60;;;6.05;;
27505;SDS011;14939;43.596;1.320;2023-03-23T17:12:53;14.85;;;6.20;;